Decoded Metar for LFLU (VALENCE in FRANCE) (IATA:VAF) | Meteo·Mobile Aviation Weather
aviador You're here:

LFLU Decoded Metar

VALENCE in FRANCE
Report Time2018-12-14 12:00:00
UTC Time2018-12-14 12:31:29
Flight Rules vfr VFR
Wind340° at 14 kt
W.Decomp.*RWY 01: 12.1 kt HW 7 kt LCW
W.Rank340° ranks 11
Current wind is above 340° avg. (8.9)
Visibility9000 m
Phenomena:N/A
Clouds:N/A
Expected CloudBase > 2,000 ft AGL from Temp-Dew spread
CeilingNone
Temp05°C
Dew Point00°C (70% RH)
AAT-2.0°C
QNH1016 hPa
Raw Report
METAR LFLU 141200Z AUTO 34014KT 9000 NSC 05/M00 Q1016=

Extra information for LFLU:More info

Metar Taf Metar & Taf Last 4 Metars F.Rules Stats Wind Profile Meteogram Temp Stats Airport Information Weather charts Add Link Nearby VenuesMetar ALERT Operation Metar Decoded Social comments